Time;durP1;ratioP1;P1;durP2;ratioP2;P2;SDS_P1;SDS_P2;PMS_P1;PMS_P2;Temp;Humidity;BMP_temperature;BMP_pressure;BME280_temperature;BME280_humidity;BME280_pressure;Samples;Min_cycle;Max_cycle;Signal;HPM_P1;HPM_P2
2022/04/23 00:00:54;;;;;;;15.80;10.33;;;12.70;99.90;;;;;;5039348;28;20182;-91
2022/04/23 00:03:19;;;;;;;18.58;10.07;;;12.70;99.90;;;;;;5038828;28;20197;-92
2022/04/23 00:05:45;;;;;;;17.00;10.27;;;12.70;99.90;;;;;;5039165;28;20221;-92
2022/04/23 00:08:11;;;;;;;14.90;9.30;;;12.60;99.90;;;;;;5039025;28;20206;-91
2022/04/23 00:10:37;;;;;;;16.80;10.07;;;12.60;99.90;;;;;;5027524;28;20343;-91
2022/04/23 00:13:04;;;;;;;17.27;10.47;;;12.50;99.90;;;;;;5105912;28;20222;-93
2022/04/23 00:15:37;;;;;;;16.63;9.63;;;12.50;99.90;;;;;;5103651;28;20242;-93
2022/04/23 00:18:10;;;;;;;16.00;10.00;;;12.50;99.90;;;;;;5085329;28;20199;-92
2022/04/23 00:20:37;;;;;;;16.80;10.35;;;12.50;99.90;;;;;;5087775;28;20191;-92
2022/04/23 00:23:04;;;;;;;19.25;10.50;;;12.50;99.90;;;;;;5082472;28;20195;-91
2022/04/23 00:25:30;;;;;;;18.58;10.10;;;12.50;99.90;;;;;;5085336;28;20223;-92
2022/04/23 00:27:56;;;;;;;16.97;10.10;;;12.50;99.90;;;;;;5083703;28;20199;-92
2022/04/23 00:30:21;;;;;;;17.23;10.50;;;12.50;99.90;;;;;;5083138;28;20424;-92
2022/04/23 00:32:47;;;;;;;15.97;10.77;;;12.50;99.90;;;;;;5014775;28;20248;-92
2022/04/23 00:35:17;;;;;;;16.85;10.23;;;12.40;99.90;;;;;;5015334;28;20190;-91
2022/04/23 00:37:44;;;;;;;18.92;11.80;;;12.40;99.90;;;;;;5015300;28;20195;-92
2022/04/23 00:40:17;;;;;;;19.30;10.65;;;12.40;99.90;;;;;;5083797;28;20183;-91
2022/04/23 00:42:51;;;;;;;15.00;9.77;;;12.40;99.90;;;;;;5082081;28;20207;-92
2022/04/23 00:45:17;;;;;;;20.13;11.57;;;12.40;99.90;;;;;;5014816;28;20218;-92
2022/04/23 00:47:42;;;;;;;18.53;11.03;;;12.40;99.90;;;;;;5083421;28;20199;-92
2022/04/23 00:50:09;;;;;;;17.70;10.13;;;12.40;99.90;;;;;;5015576;28;20761;-92
2022/04/23 00:52:35;;;;;;;17.95;10.80;;;12.40;99.90;;;;;;5014562;28;20200;-92
2022/04/23 00:55:05;;;;;;;19.60;11.32;;;12.30;99.90;;;;;;5016244;28;20228;-92
2022/04/23 00:57:33;;;;;;;18.73;10.77;;;12.30;99.90;;;;;;5082985;28;20291;-92
2022/04/23 01:00:02;;;;;;;17.25;10.63;;;12.30;99.90;;;;;;5083598;28;20186;-92
2022/04/23 01:02:28;;;;;;;19.83;10.65;;;12.30;99.90;;;;;;5014962;28;20184;-92
2022/04/23 01:04:54;;;;;;;18.43;12.10;;;12.30;99.90;;;;;;5014663;28;20260;-92
2022/04/23 01:07:20;;;;;;;21.27;11.70;;;12.30;99.90;;;;;;5015479;28;20613;-92
2022/04/23 01:09:48;;;;;;;22.17;12.50;;;12.40;99.90;;;;;;5020371;28;20306;-92
2022/04/23 01:12:14;;;;;;;21.85;11.65;;;12.40;99.90;;;;;;5101284;28;20207;-93
2022/04/23 01:15:05;;;;;;;17.73;12.40;;;12.40;99.90;;;;;;5101536;28;20279;-92
2022/04/23 01:17:31;;;;;;;20.45;11.35;;;12.40;99.90;;;;;;5101385;28;20436;-92
2022/04/23 01:19:57;;;;;;;19.02;11.13;;;12.40;99.90;;;;;;5105670;28;20172;-91
2022/04/23 01:22:24;;;;;;;18.27;10.48;;;12.40;99.90;;;;;;5106984;28;20200;-92
2022/04/23 01:24:54;;;;;;;16.73;10.77;;;12.40;99.90;;;;;;5100265;28;20200;-92
2022/04/23 01:27:25;;;;;;;17.10;10.65;;;12.30;99.90;;;;;;5104124;28;20751;-92
2022/04/23 01:29:51;;;;;;;17.33;10.80;;;12.30;99.90;;;;;;5130101;28;20203;-92
2022/04/23 01:32:17;;;;;;;20.40;12.18;;;12.30;99.90;;;;;;5098984;28;20202;-92
2022/04/23 01:34:42;;;;;;;19.77;11.20;;;12.30;99.90;;;;;;5098178;28;20176;-92
2022/04/23 01:37:08;;;;;;;16.60;9.97;;;12.30;99.90;;;;;;5099082;28;20191;-91
2022/04/23 01:39:35;;;;;;;19.30;10.90;;;12.30;99.90;;;;;;5099074;28;20179;-92
2022/04/23 01:42:00;;;;;;;17.48;10.88;;;12.20;99.90;;;;;;5097450;28;20204;-92
2022/04/23 01:44:26;;;;;;;18.23;12.50;;;12.20;99.90;;;;;;5098254;28;20229;-92
2022/04/23 01:46:52;;;;;;;17.53;11.20;;;12.20;99.90;;;;;;5115781;28;20211;-92
2022/04/23 01:49:17;;;;;;;21.87;11.13;;;12.20;99.90;;;;;;5098779;28;20172;-92
2022/04/23 01:51:43;;;;;;;19.53;11.67;;;12.20;99.90;;;;;;5116422;28;20191;-92
2022/04/23 01:54:09;;;;;;;22.07;13.33;;;12.20;99.90;;;;;;5117776;28;20227;-91
2022/04/23 01:56:35;;;;;;;18.70;12.07;;;12.20;99.90;;;;;;5098767;28;20212;-92
2022/04/23 01:59:01;;;;;;;18.98;11.35;;;12.20;99.90;;;;;;5099668;28;20172;-92
2022/04/23 02:01:26;;;;;;;18.07;11.37;;;12.10;99.90;;;;;;5100137;28;20197;-92
2022/04/23 02:03:52;;;;;;;18.47;11.00;;;12.10;99.90;;;;;;5099572;28;20211;-91
2022/04/23 02:06:18;;;;;;;22.63;13.77;;;12.10;99.90;;;;;;5098589;28;20218;-91
2022/04/23 02:08:44;;;;;;;23.10;13.53;;;12.10;99.90;;;;;;5117228;28;20442;-92
2022/04/23 02:11:09;;;;;;;19.17;12.03;;;12.00;99.90;;;;;;5033963;28;20229;-92
2022/04/23 02:13:35;;;;;;;21.43;10.57;;;12.00;99.90;;;;;;5017569;28;20667;-91
2022/04/23 02:16:04;;;;;;;21.80;12.80;;;12.00;99.90;;;;;;5035276;28;20484;-92
2022/04/23 02:18:31;;;;;;;22.05;10.93;;;12.10;99.90;;;;;;5034328;28;20262;-92
2022/04/23 02:20:57;;;;;;;19.20;12.50;;;12.10;99.90;;;;;;5017243;28;20693;-92
2022/04/23 02:23:23;;;;;;;24.97;11.27;;;12.10;99.90;;;;;;5018334;28;20198;-92
2022/04/23 02:25:48;;;;;;;20.13;12.25;;;12.10;99.90;;;;;;5035701;28;20796;-92
2022/04/23 02:28:14;;;;;;;20.93;12.33;;;12.20;99.90;;;;;;5017710;28;20198;-92
2022/04/23 02:30:40;;;;;;;27.47;13.73;;;12.20;99.90;;;;;;5036063;28;20183;-92
2022/04/23 02:33:06;;;;;;;21.33;13.17;;;12.20;99.90;;;;;;5038624;28;20190;-92
2022/04/23 02:35:34;;;;;;;22.00;13.43;;;12.20;99.90;;;;;;5014270;28;20206;-92
2022/04/23 02:38:01;;;;;;;27.85;13.45;;;12.30;99.90;;;;;;5014705;28;20222;-92
2022/04/23 02:43:50;;;;;;;19.27;13.73;;;12.30;99.90;;;;;;5033194;28;20216;-92
2022/04/23 02:46:16;;;;;;;23.52;14.95;;;12.30;99.90;;;;;;5016580;28;20290;-91
2022/04/23 02:48:42;;;;;;;20.30;13.33;;;12.40;99.90;;;;;;5033888;28;20226;-92
2022/04/23 02:51:12;;;;;;;20.58;12.93;;;12.40;99.90;;;;;;5040034;28;20251;-92
2022/04/23 02:53:38;;;;;;;24.60;14.07;;;12.40;99.90;;;;;;5021465;28;20222;-91
2022/04/23 02:56:05;;;;;;;24.07;12.30;;;12.40;99.90;;;;;;5020802;28;20530;-92
2022/04/23 02:58:31;;;;;;;22.95;13.32;;;12.40;99.90;;;;;;5020630;28;20195;-92
2022/04/23 03:00:57;;;;;;;23.07;13.70;;;12.40;99.90;;;;;;5038786;28;20182;-92
2022/04/23 03:03:23;;;;;;;27.03;12.50;;;12.40;99.90;;;;;;5022158;28;20526;-92
2022/04/23 03:05:51;;;;;;;20.43;11.30;;;12.40;99.90;;;;;;5021911;28;20214;-91
2022/04/23 03:08:17;;;;;;;20.67;12.40;;;12.40;99.90;;;;;;5039341;28;20661;-92
2022/04/23 03:10:43;;;;;;;19.77;12.57;;;12.40;99.90;;;;;;5038646;28;20249;-91
2022/04/23 03:13:09;;;;;;;19.17;11.43;;;12.40;99.90;;;;;;5020727;28;20205;-92
2022/04/23 03:15:36;;;;;;;22.53;12.60;;;12.40;99.90;;;;;;5023099;28;20178;-92
2022/04/23 03:18:08;;;;;;;20.92;12.10;;;12.40;99.90;;;;;;5024122;28;20199;-91
2022/04/23 03:20:34;;;;;;;20.73;12.65;;;12.40;99.90;;;;;;5042629;28;20210;-91
2022/04/23 03:23:00;;;;;;;21.35;10.35;;;12.40;99.90;;;;;;5023116;28;20194;-92
2022/04/23 03:25:26;;;;;;;17.50;11.63;;;12.40;99.90;;;;;;5024886;28;20222;-91
2022/04/23 03:27:52;;;;;;;18.88;10.63;;;12.40;99.90;;;;;;5031387;28;20243;-92
2022/04/23 03:30:20;;;;;;;20.77;12.10;;;12.40;99.90;;;;;;5038419;28;20263;-92
2022/04/23 03:32:47;;;;;;;18.52;11.38;;;12.40;99.90;;;;;;5020957;28;20686;-92
2022/04/23 03:35:12;;;;;;;17.10;11.30;;;12.40;99.90;;;;;;5022294;28;20187;-91
2022/04/23 03:37:39;;;;;;;21.33;11.60;;;12.40;99.90;;;;;;5021523;28;20577;-92
2022/04/23 03:40:06;;;;;;;20.23;11.73;;;12.40;99.90;;;;;;5021378;28;20191;-92
2022/04/23 03:42:32;;;;;;;21.20;11.32;;;12.40;99.90;;;;;;5019869;28;20653;-92
2022/04/23 03:44:58;;;;;;;17.97;11.43;;;12.40;99.90;;;;;;5037781;28;20234;-92
2022/04/23 03:47:24;;;;;;;18.57;11.70;;;12.40;99.90;;;;;;5020096;28;20476;-91
2022/04/23 03:49:50;;;;;;;20.50;10.80;;;12.40;99.90;;;;;;5020259;28;20183;-92
2022/04/23 03:52:15;;;;;;;16.43;10.40;;;12.40;99.90;;;;;;5040351;28;20195;-92
2022/04/23 03:54:41;;;;;;;23.73;11.63;;;12.40;99.90;;;;;;5021350;28;20632;-92
2022/04/23 03:57:07;;;;;;;18.87;11.60;;;12.40;99.90;;;;;;5038465;28;20554;-91
2022/04/23 03:59:35;;;;;;;20.60;11.30;;;12.40;99.90;;;;;;5039156;28;20526;-92
2022/04/23 04:02:04;;;;;;;16.15;11.02;;;12.40;99.90;;;;;;5018158;28;20464;-91
2022/04/23 04:04:33;;;;;;;22.38;12.93;;;12.40;99.90;;;;;;5017976;28;20174;-92
2022/04/23 04:07:02;;;;;;;26.38;12.55;;;12.40;99.90;;;;;;5037116;28;20792;-92
2022/04/23 04:09:29;;;;;;;24.73;13.30;;;12.40;99.90;;;;;;5019113;28;20189;-91
2022/04/23 04:12:01;;;;;;;17.50;11.20;;;12.40;99.90;;;;;;5018697;28;20681;-92
2022/04/23 04:14:30;;;;;;;19.13;10.75;;;12.40;99.90;;;;;;5019459;28;20248;-92
2022/04/23 04:16:59;;;;;;;20.13;11.82;;;12.40;99.90;;;;;;5019822;28;20198;-92
2022/04/23 04:19:30;;;;;;;22.23;12.68;;;12.30;99.90;;;;;;5025813;28;20190;-92
2022/04/23 04:21:57;;;;;;;23.45;13.60;;;12.30;99.90;;;;;;5017533;28;20198;-92
2022/04/23 04:24:24;;;;;;;23.33;12.45;;;12.30;99.90;;;;;;5018452;28;20183;-92
2022/04/23 04:26:50;;;;;;;23.30;13.18;;;12.30;99.90;;;;;;5016640;28;20232;-92
2022/04/23 04:29:17;;;;;;;21.23;13.13;;;12.30;99.90;;;;;;5017233;28;20631;-92
2022/04/23 04:31:51;;;;;;;21.52;12.60;;;12.30;99.90;;;;;;5016838;28;20183;-92
2022/04/23 04:34:28;;;;;;;19.17;11.52;;;12.30;99.90;;;;;;5017500;28;20182;-91
2022/04/23 04:37:14;;;;;;;21.00;13.52;;;12.30;99.90;;;;;;5016636;28;20671;-92
2022/04/23 04:39:42;;;;;;;23.67;13.27;;;12.30;99.90;;;;;;5018685;28;20187;-91
2022/04/23 04:42:08;;;;;;;19.67;13.10;;;12.30;99.90;;;;;;5017842;28;20732;-91
2022/04/23 04:44:35;;;;;;;22.40;13.30;;;12.30;99.90;;;;;;5017278;28;20195;-92
2022/04/23 04:47:00;;;;;;;23.00;14.52;;;12.30;99.90;;;;;;5017532;28;20687;-91
2022/04/23 04:49:26;;;;;;;28.47;15.40;;;12.30;99.90;;;;;;5036100;28;20231;-92
2022/04/23 04:51:53;;;;;;;23.73;13.30;;;12.30;99.90;;;;;;5019186;28;20428;-92
2022/04/23 04:54:21;;;;;;;24.98;15.63;;;12.30;99.90;;;;;;5019514;28;20254;-92
2022/04/23 04:56:51;;;;;;;27.30;15.57;;;12.30;99.90;;;;;;5020764;28;20194;-91
2022/04/23 04:59:17;;;;;;;28.13;15.88;;;12.30;99.90;;;;;;5019211;28;20194;-92
2022/04/23 05:01:43;;;;;;;23.88;14.10;;;12.30;99.90;;;;;;5035678;28;20175;-92
2022/04/23 05:04:09;;;;;;;25.42;13.90;;;12.30;99.90;;;;;;5037398;28;20176;-92
2022/04/23 05:06:35;;;;;;;25.90;15.57;;;12.30;99.90;;;;;;5019767;28;20213;-93
2022/04/23 05:09:01;;;;;;;24.25;15.13;;;12.30;99.90;;;;;;5041095;28;20518;-92
2022/04/23 05:11:27;;;;;;;27.73;15.88;;;12.30;99.90;;;;;;5025062;28;20269;-92
2022/04/23 05:13:53;;;;;;;26.30;16.23;;;12.30;99.90;;;;;;5044571;28;20171;-91
2022/04/23 05:16:19;;;;;;;27.87;17.10;;;12.30;99.90;;;;;;5029039;28;20189;-91
2022/04/23 05:18:44;;;;;;;25.80;16.30;;;12.30;99.90;;;;;;5054033;28;20197;-91
2022/04/23 05:21:11;;;;;;;29.73;16.20;;;12.30;99.90;;;;;;5036405;28;20435;-92
2022/04/23 05:23:38;;;;;;;25.15;16.15;;;12.30;99.90;;;;;;5036919;28;20197;-91
2022/04/23 05:26:04;;;;;;;28.83;16.08;;;12.30;99.90;;;;;;5037025;28;20316;-91
2022/04/23 05:28:34;;;;;;;25.63;17.35;;;12.30;99.90;;;;;;5037280;28;20280;-92
2022/04/23 05:31:00;;;;;;;41.40;25.88;;;12.30;99.90;;;;;;5036325;28;20258;-92
2022/04/23 05:33:26;;;;;;;72.97;37.70;;;12.40;99.90;;;;;;5036447;28;20197;-91
2022/04/23 05:35:52;;;;;;;34.20;20.53;;;12.40;99.90;;;;;;5036122;28;20434;-92
2022/04/23 05:38:22;;;;;;;34.43;18.30;;;12.40;99.90;;;;;;5036559;28;20200;-92
2022/04/23 05:40:48;;;;;;;24.90;15.77;;;12.50;99.90;;;;;;5054549;28;20425;-92
2022/04/23 05:43:15;;;;;;;29.13;18.17;;;12.50;99.90;;;;;;5055806;28;20423;-92
2022/04/23 05:45:41;;;;;;;28.75;16.42;;;12.50;99.90;;;;;;5037131;28;20308;-91
2022/04/23 05:48:07;;;;;;;30.30;17.92;;;12.50;99.90;;;;;;5053573;28;20688;-91
2022/04/23 05:50:33;;;;;;;25.55;15.63;;;12.60;99.90;;;;;;5054483;28;20213;-91
2022/04/23 05:52:59;;;;;;;31.03;17.47;;;12.70;99.90;;;;;;5054055;28;20185;-92
2022/04/23 05:55:25;;;;;;;28.40;15.37;;;12.70;99.90;;;;;;5038536;28;20189;-92
2022/04/23 05:57:50;;;;;;;31.30;17.50;;;12.80;99.90;;;;;;5037031;28;20784;-92
2022/04/23 06:00:17;;;;;;;27.23;16.90;;;12.80;99.90;;;;;;5037906;28;20209;-91
2022/04/23 06:02:42;;;;;;;30.35;18.60;;;12.80;99.90;;;;;;5037740;28;20198;-91
2022/04/23 06:05:09;;;;;;;28.87;16.50;;;12.80;99.90;;;;;;5054041;28;20202;-92
2022/04/23 06:07:35;;;;;;;33.22;19.20;;;12.90;99.90;;;;;;5056226;28;20250;-91
2022/04/23 06:10:01;;;;;;;26.90;17.03;;;12.90;99.90;;;;;;5044899;28;20233;-92
2022/04/23 06:12:27;;;;;;;30.58;17.42;;;12.90;99.90;;;;;;5052224;28;20426;-91
2022/04/23 06:14:53;;;;;;;32.00;19.30;;;12.90;99.90;;;;;;5053238;28;20189;-91
2022/04/23 06:17:24;;;;;;;28.70;18.30;;;12.90;99.90;;;;;;5020531;28;20206;-91
2022/04/23 06:19:50;;;;;;;32.00;19.50;;;12.90;99.90;;;;;;5012812;28;20180;-92
2022/04/23 06:22:16;;;;;;;31.88;19.27;;;12.90;99.90;;;;;;5012687;28;20555;-92
2022/04/23 06:24:42;;;;;;;33.50;17.00;;;12.90;99.90;;;;;;5010652;28;20184;-92
2022/04/23 06:27:08;;;;;;;33.77;19.63;;;12.90;99.90;;;;;;5012541;28;20437;-91
2022/04/23 06:29:36;;;;;;;33.87;19.43;;;12.90;99.90;;;;;;5012052;28;20187;-91
2022/04/23 06:32:02;;;;;;;27.27;18.03;;;12.80;99.90;;;;;;5014717;28;20228;-91
2022/04/23 06:34:28;;;;;;;37.97;20.70;;;12.80;99.90;;;;;;5012476;28;20512;-91
2022/04/23 06:36:54;;;;;;;34.73;20.00;;;12.80;99.90;;;;;;5011812;28;20234;-92
2022/04/23 06:39:19;;;;;;;36.60;21.60;;;12.80;99.90;;;;;;5012385;28;20560;-91
2022/04/23 06:41:45;;;;;;;33.40;19.67;;;12.80;99.90;;;;;;5013165;28;20201;-91
2022/04/23 06:44:11;;;;;;;31.17;19.83;;;12.90;99.90;;;;;;5014370;28;20178;-92
2022/04/23 06:46:37;;;;;;;32.73;19.50;;;13.00;99.90;;;;;;5015920;28;20289;-92
2022/04/23 06:49:05;;;;;;;34.57;21.53;;;13.10;99.90;;;;;;5014936;28;20200;-92
2022/04/23 06:51:37;;;;;;;33.37;19.80;;;13.10;99.90;;;;;;5014293;28;20171;-92
2022/04/23 06:54:04;;;;;;;32.95;19.35;;;13.10;99.90;;;;;;5014332;28;20397;-92
2022/04/23 06:56:30;;;;;;;34.10;20.20;;;13.10;99.90;;;;;;5014529;28;20287;-92
2022/04/23 06:58:56;;;;;;;30.45;17.95;;;13.10;99.90;;;;;;5013755;28;20184;-92
2022/04/23 07:01:22;;;;;;;35.30;19.95;;;13.10;99.90;;;;;;5014637;28;20179;-91
2022/04/23 07:03:48;;;;;;;36.50;21.60;;;13.10;99.90;;;;;;5014704;28;20267;-90
2022/04/23 07:06:15;;;;;;;31.93;19.40;;;13.10;99.90;;;;;;5018752;28;20508;-91
2022/04/23 07:08:43;;;;;;;33.42;19.10;;;13.20;99.90;;;;;;5016714;28;20241;-92
2022/04/23 07:11:09;;;;;;;30.08;18.10;;;13.20;99.90;;;;;;5014063;28;20231;-91
2022/04/23 07:13:35;;;;;;;32.07;19.77;;;13.20;99.90;;;;;;5014125;28;20227;-92
2022/04/23 07:16:03;;;;;;;31.77;20.47;;;13.20;99.90;;;;;;5028462;28;20423;-92
2022/04/23 07:18:30;;;;;;;33.30;20.20;;;13.30;99.90;;;;;;5037629;28;20426;-91
2022/04/23 07:20:55;;;;;;;29.43;18.53;;;13.30;99.90;;;;;;5037674;28;20430;-92
2022/04/23 07:26:08;;;;;;;36.53;20.90;;;13.20;99.90;;;;;;5054426;28;20220;-92
2022/04/23 07:28:34;;;;;;;29.98;18.17;;;13.20;99.90;;;;;;5055025;28;20431;-92
2022/04/23 07:31:03;;;;;;;35.93;21.17;;;13.20;99.90;;;;;;5069536;28;20183;-91
2022/04/23 07:38:56;;;;;;;34.00;19.97;;;13.10;99.90;;;;;;5054822;28;20910;-91
2022/04/23 07:41:22;;;;;;;33.87;19.00;;;13.10;99.90;;;;;;5037507;28;20415;-91
2022/04/23 07:43:48;;;;;;;32.23;19.07;;;13.10;99.90;;;;;;5037110;28;20201;-91
2022/04/23 07:46:13;;;;;;;34.57;18.97;;;13.10;99.90;;;;;;5039261;28;20228;-91
2022/04/23 07:48:39;;;;;;;33.53;18.23;;;13.10;99.90;;;;;;5057108;28;20202;-92
2022/04/23 07:51:05;;;;;;;35.43;19.20;;;13.10;99.90;;;;;;5055993;28;20181;-91
2022/04/23 07:53:31;;;;;;;29.13;17.60;;;13.10;99.90;;;;;;5054927;28;20198;-91
2022/04/23 07:55:59;;;;;;;29.83;18.27;;;13.10;99.90;;;;;;5037511;28;20209;-92
2022/04/23 07:58:25;;;;;;;30.03;17.87;;;13.10;99.90;;;;;;5038439;28;20684;-91
2022/04/23 08:00:51;;;;;;;32.30;20.23;;;13.10;99.90;;;;;;5038979;28;20431;-92
2022/04/23 08:03:17;;;;;;;39.57;23.57;;;13.10;99.90;;;;;;5038792;28;20419;-92
2022/04/23 08:05:42;;;;;;;38.70;20.30;;;13.00;99.90;;;;;;5056100;28;20237;-92
2022/04/23 08:08:08;;;;;;;55.60;31.03;;;13.00;99.90;;;;;;5057024;28;20190;-91
2022/04/23 08:10:34;;;;;;;35.50;20.70;;;13.10;99.90;;;;;;5039905;28;20229;-92
2022/04/23 08:13:00;;;;;;;30.60;18.40;;;13.10;99.90;;;;;;5039245;28;20194;-92
2022/04/23 08:15:26;;;;;;;33.60;18.90;;;13.10;99.90;;;;;;5036754;28;20431;-92
2022/04/23 08:17:53;;;;;;;30.93;18.90;;;13.10;99.90;;;;;;5016520;28;20787;-92
2022/04/23 08:20:19;;;;;;;33.90;20.37;;;13.20;99.90;;;;;;5016422;28;20441;-92
2022/04/23 08:22:45;;;;;;;30.47;16.93;;;13.20;99.90;;;;;;5016756;28;20877;-92
2022/04/23 08:25:11;;;;;;;30.90;18.27;;;13.20;99.90;;;;;;5020363;28;20445;-92
2022/04/23 08:27:54;;;;;;;30.60;18.87;;;13.30;99.90;;;;;;5016354;28;20429;-92
2022/04/23 08:30:35;;;;;;;30.73;17.67;;;13.20;99.90;;;;;;5012984;28;20444;-90
2022/04/23 08:33:05;;;;;;;32.03;17.97;;;13.20;99.90;;;;;;5013505;28;20497;-91
2022/04/23 08:35:32;;;;;;;29.20;17.13;;;13.10;99.90;;;;;;5013209;28;20840;-91
2022/04/23 08:37:59;;;;;;;32.20;17.87;;;13.10;99.90;;;;;;5013072;28;20528;-92
2022/04/23 08:40:29;;;;;;;35.00;20.03;;;13.10;99.90;;;;;;5013540;28;20846;-91
2022/04/23 08:42:57;;;;;;;58.07;28.80;;;13.00;99.90;;;;;;5014240;28;20448;-91
2022/04/23 08:45:23;;;;;;;34.15;23.95;;;13.10;99.90;;;;;;5015278;28;20477;-92
2022/04/23 08:47:50;;;;;;;31.30;18.80;;;13.10;99.90;;;;;;5014170;28;20195;-91
2022/04/23 08:50:20;;;;;;;33.38;18.38;;;13.10;99.90;;;;;;5014301;28;20206;-91
2022/04/23 08:52:51;;;;;;;33.53;19.10;;;13.10;99.90;;;;;;5013506;28;20240;-91
2022/04/23 08:55:18;;;;;;;28.17;15.70;;;13.10;99.90;;;;;;5013263;28;20403;-91
2022/04/23 08:57:44;;;;;;;33.17;18.10;;;13.10;99.90;;;;;;5014089;28;20528;-92
2022/04/23 09:00:14;;;;;;;28.20;16.90;;;13.10;99.90;;;;;;5014881;28;20500;-92
2022/04/23 09:02:41;;;;;;;27.97;19.07;;;13.10;99.90;;;;;;5016530;28;20242;-91
2022/04/23 09:05:07;;;;;;;30.93;16.87;;;13.10;99.90;;;;;;5013980;28;20484;-92
2022/04/23 09:07:34;;;;;;;30.73;18.97;;;13.20;99.90;;;;;;5014848;28;20512;-91
2022/04/23 09:10:00;;;;;;;33.70;18.50;;;13.20;99.90;;;;;;5014891;28;20528;-92
2022/04/23 09:12:27;;;;;;;36.23;19.33;;;13.20;99.90;;;;;;5015226;28;20467;-91
2022/04/23 09:23:39;;;;;;;28.55;17.10;;;13.30;99.90;;;;;;5017150;28;20420;-91
2022/04/23 09:26:16;;;;;;;30.90;17.98;;;13.30;99.90;;;;;;5017291;28;20210;-91
2022/04/23 09:28:46;;;;;;;31.03;18.70;;;13.40;99.90;;;;;;4999540;28;20668;-92
2022/04/23 09:31:13;;;;;;;26.50;16.37;;;13.40;99.90;;;;;;5010130;28;20429;-91
2022/04/23 09:33:43;;;;;;;26.50;16.90;;;13.40;99.90;;;;;;5002572;28;20486;-91
2022/04/23 09:36:09;;;;;;;26.97;16.50;;;13.40;99.90;;;;;;5002355;28;20432;-91
2022/04/23 09:38:35;;;;;;;28.83;17.60;;;13.50;99.90;;;;;;4997721;28;20524;-91
2022/04/23 09:41:19;;;;;;;24.50;16.03;;;13.50;99.90;;;;;;5013593;28;20258;-92
2022/04/23 09:44:04;;;;;;;25.93;14.73;;;13.60;99.90;;;;;;5013683;28;20209;-90
2022/04/23 09:46:43;;;;;;;20.53;13.00;;;13.70;99.90;;;;;;5014048;28;20472;-92
2022/04/23 09:49:09;;;;;;;16.67;13.10;;;13.70;99.90;;;;;;4997218;28;20486;-91
2022/04/23 09:51:35;;;;;;;20.27;13.80;;;13.80;99.90;;;;;;4995574;28;20512;-91
2022/04/23 09:54:02;;;;;;;18.10;12.73;;;13.80;99.90;;;;;;5012549;28;20933;-91
2022/04/23 09:56:28;;;;;;;17.30;11.23;;;13.80;99.90;;;;;;4995827;28;20247;-92
2022/04/23 09:58:55;;;;;;;21.07;12.27;;;13.80;99.90;;;;;;4995356;28;20453;-92
2022/04/23 10:01:22;;;;;;;15.73;11.60;;;13.80;99.90;;;;;;4996740;28;20944;-91
2022/04/23 10:03:55;;;;;;;17.80;11.73;;;13.90;99.90;;;;;;4997338;28;20460;-91
2022/04/23 10:06:23;;;;;;;16.40;10.40;;;13.90;99.90;;;;;;4996534;28;20476;-90
2022/04/23 10:08:55;;;;;;;20.07;13.57;;;13.90;99.90;;;;;;5014020;28;20445;-91
2022/04/23 10:11:26;;;;;;;19.77;12.87;;;13.90;99.90;;;;;;5014887;28;20837;-91
2022/04/23 10:13:59;;;;;;;13.87;10.70;;;13.90;99.90;;;;;;4997319;28;20417;-91
2022/04/23 10:16:27;;;;;;;17.73;12.40;;;13.90;99.90;;;;;;5024745;28;20424;-91
2022/04/23 10:18:55;;;;;;;19.33;12.27;;;13.80;99.90;;;;;;5034439;28;20411;-91
2022/04/23 10:21:33;;;;;;;16.27;11.23;;;13.90;99.90;;;;;;5018162;28;20411;-91
2022/04/23 10:24:22;;;;;;;15.63;11.90;;;13.90;99.90;;;;;;5018371;28;20419;-91
2022/04/23 10:26:55;;;;;;;17.60;11.97;;;14.00;99.90;;;;;;5036365;28;20523;-91
2022/04/23 10:29:27;;;;;;;18.77;12.50;;;14.10;99.90;;;;;;5019025;28;20784;-92
2022/04/23 10:32:11;;;;;;;27.30;22.30;;;14.20;99.90;;;;;;5022867;28;20432;-90
2022/04/23 10:34:38;;;;;;;14.37;10.23;;;14.40;99.90;;;;;;5021250;28;20427;-90
2022/04/23 10:37:27;;;;;;;34.63;22.10;;;14.40;99.90;;;;;;5025118;28;20442;-90
2022/04/23 10:39:53;;;;;;;18.20;14.07;;;14.50;99.90;;;;;;5031992;28;20920;-91
2022/04/23 10:42:21;;;;;;;17.90;13.70;;;14.60;99.90;;;;;;5013995;28;20450;-91
2022/04/23 10:44:48;;;;;;;18.20;13.10;;;14.70;99.90;;;;;;5032781;28;20238;-92
2022/04/23 10:47:32;;;;;;;20.33;13.07;;;14.80;99.90;;;;;;5015034;28;20459;-92
2022/04/23 10:50:18;;;;;;;20.63;13.67;;;14.80;99.90;;;;;;5017334;28;20471;-92
2022/04/23 10:52:44;;;;;;;18.63;13.00;;;14.90;99.90;;;;;;5032459;28;20434;-91
2022/04/23 10:55:12;;;;;;;17.70;12.57;;;14.90;99.90;;;;;;5032518;28;20465;-92
2022/04/23 10:57:39;;;;;;;16.80;11.50;;;14.90;99.90;;;;;;5015277;28;20431;-91
2022/04/23 11:00:16;;;;;;;17.07;11.90;;;14.90;99.90;;;;;;5015523;28;20440;-91
2022/04/23 11:02:46;;;;;;;16.63;12.33;;;14.90;99.90;;;;;;5032405;28;20430;-91
2022/04/23 11:13:55;;;;;;;18.27;12.43;;;14.70;99.90;;;;;;5038056;28;20545;-90
2022/04/23 11:16:23;;;;;;;16.67;12.30;;;14.70;99.90;;;;;;5029069;28;20502;-91
2022/04/23 11:18:51;;;;;;;13.77;10.80;;;14.70;99.90;;;;;;5039290;28;20439;-91
2022/04/23 11:21:28;;;;;;;16.80;11.80;;;14.70;99.90;;;;;;5041508;28;20422;-90
2022/04/23 11:23:56;;;;;;;14.30;10.47;;;14.70;99.90;;;;;;5039764;28;20433;-92
2022/04/23 11:26:51;;;;;;;15.90;11.67;;;14.70;99.90;;;;;;5060177;28;20462;-92
2022/04/23 11:29:17;;;;;;;19.37;12.47;;;14.80;99.90;;;;;;5044742;28;20453;-91
2022/04/23 11:31:58;;;;;;;19.20;11.90;;;14.90;99.90;;;;;;5036839;28;20470;-92
2022/04/23 11:34:25;;;;;;;18.80;12.13;;;14.90;99.90;;;;;;5037281;28;20513;-91
2022/04/23 11:36:51;;;;;;;17.87;11.77;;;15.00;99.90;;;;;;5056584;28;20466;-91
2022/04/23 11:39:17;;;;;;;16.60;11.30;;;15.00;99.90;;;;;;5037426;28;20749;-91
2022/04/23 11:41:49;;;;;;;16.30;12.60;;;15.00;99.90;;;;;;5036791;28;20448;-92
2022/04/23 11:47:12;;;;;;;23.20;13.60;;;15.10;99.90;;;;;;5055424;28;21009;-91
2022/04/23 11:49:38;;;;;;;17.90;13.20;;;15.10;99.90;;;;;;5054728;28;20804;-92
2022/04/23 11:52:15;;;;;;;24.60;15.87;;;15.10;99.90;;;;;;5054802;28;20426;-91
2022/04/23 11:54:41;;;;;;;26.77;16.63;;;15.20;99.90;;;;;;5038683;28;20426;-91
2022/04/23 11:57:13;;;;;;;22.50;14.17;;;15.20;99.90;;;;;;5037906;28;20439;-91
2022/04/23 11:59:43;;;;;;;22.10;14.60;;;15.30;99.90;;;;;;5056602;28;20461;-91
2022/04/23 12:02:23;;;;;;;28.17;17.10;;;15.40;99.90;;;;;;5038719;28;20482;-91
2022/04/23 12:04:53;;;;;;;30.67;18.17;;;15.50;99.90;;;;;;5039238;28;20833;-92
2022/04/23 12:07:20;;;;;;;22.60;15.20;;;15.60;99.90;;;;;;5058990;28;20801;-92
2022/04/23 12:09:54;;;;;;;22.27;15.30;;;15.80;99.90;;;;;;5054229;28;20920;-91
2022/04/23 12:12:20;;;;;;;23.20;15.13;;;15.90;99.90;;;;;;5037840;28;20533;-91
2022/04/23 12:14:51;;;;;;;24.20;14.27;;;16.10;99.90;;;;;;5038016;28;20460;-92
2022/04/23 12:17:26;;;;;;;20.30;13.93;;;16.20;99.90;;;;;;5039364;28;21031;-91
2022/04/23 12:20:09;;;;;;;25.43;16.83;;;16.40;99.90;;;;;;5066280;28;20423;-91
2022/04/23 12:25:19;;;;;;;26.60;15.60;;;16.60;99.90;;;;;;5066971;28;20465;-91
2022/04/23 12:42:25;;;;;;;19.77;13.70;;;17.30;99.90;;;;;;5054862;28;20953;-90
2022/04/23 12:44:52;;;;;;;22.60;16.67;;;17.40;99.90;;;;;;5036343;28;20427;-91
2022/04/23 12:47:34;;;;;;;17.20;12.87;;;17.40;99.90;;;;;;5053331;28;20567;-92
2022/04/23 12:50:02;;;;;;;31.43;13.60;;;17.50;99.90;;;;;;5054672;28;21003;-92
2022/04/23 12:52:37;;;;;;;18.47;12.87;;;17.50;99.90;;;;;;5036956;28;20446;-91
2022/04/23 12:55:19;;;;;;;15.00;11.40;;;17.50;99.90;;;;;;5036879;28;20426;-92
2022/04/23 12:57:48;;;;;;;17.20;12.40;;;17.50;99.90;;;;;;5054507;28;20442;-92
2022/04/23 13:00:24;;;;;;;17.07;11.50;;;17.40;99.90;;;;;;5039375;28;20441;-91
2022/04/23 13:02:54;;;;;;;16.53;12.50;;;17.40;99.90;;;;;;5039179;28;20427;-91
2022/04/23 13:05:20;;;;;;;14.30;10.83;;;17.30;99.90;;;;;;5038349;28;20474;-91
2022/04/23 13:10:38;;;;;;;12.37;10.10;;;17.20;99.90;;;;;;5013934;28;20502;-92
2022/04/23 13:13:09;;;;;;;17.40;11.63;;;17.10;99.90;;;;;;5018433;27;20863;-91
2022/04/23 13:15:36;;;;;;;14.40;11.13;;;17.10;99.90;;;;;;5003942;28;20491;-91
2022/04/23 13:18:03;;;;;;;15.20;12.40;;;17.10;99.90;;;;;;4995313;28;20536;-92
2022/04/23 13:20:28;;;;;;;18.13;11.30;;;17.00;99.90;;;;;;4996001;28;20486;-92
2022/04/23 13:22:55;;;;;;;18.37;13.40;;;17.00;99.90;;;;;;5012265;28;20449;-91
2022/04/23 13:25:21;;;;;;;16.77;12.80;;;17.00;99.90;;;;;;4995587;28;20250;-92